Time;durP1;ratioP1;P1;durP2;ratioP2;P2;SDS_P1;SDS_P2;PMS_P1;PMS_P2;Temp;Humidity;BMP_temperature;BMP_pressure;BME280_temperature;BME280_humidity;BME280_pressure;Samples;Min_cycle;Max_cycle;Signal;HPM_P1;HPM_P2
2023/05/28 00:01:32;;;;;;;10.70;3.53;;;20.80;82.10;;;;;;5072174;28;20044;-67
2023/05/28 00:03:58;;;;;;;10.55;3.60;;;20.90;82.20;;;;;;5074367;28;20486;-68
2023/05/28 00:06:24;;;;;;;8.07;3.80;;;;;;;;;;5073453;28;20478;-69
2023/05/28 00:08:50;;;;;;;10.15;3.90;;;21.00;82.20;;;;;;5073272;28;20482;-68
2023/05/28 00:11:16;;;;;;;9.90;3.67;;;20.90;82.10;;;;;;5073585;28;20043;-66
2023/05/28 00:13:42;;;;;;;9.60;3.38;;;20.70;82.00;;;;;;5063914;28;20099;-67
2023/05/28 00:16:07;;;;;;;9.40;3.70;;;21.00;82.10;;;;;;5074343;28;20124;-67
2023/05/28 00:18:33;;;;;;;9.90;4.20;;;20.80;82.00;;;;;;5060600;28;20162;-67
2023/05/28 00:21:00;;;;;;;10.43;4.35;;;20.70;82.00;;;;;;5063480;28;20490;-68
2023/05/28 00:23:26;;;;;;;11.80;3.63;;;20.90;82.10;;;;;;5074195;28;20124;-67
2023/05/28 00:25:52;;;;;;;9.68;3.80;;;20.70;82.00;;;;;;5074706;28;20537;-67
2023/05/28 00:28:17;;;;;;;8.77;3.90;;;20.80;82.00;;;;;;5073920;28;20052;-68
2023/05/28 00:30:43;;;;;;;11.43;3.70;;;20.70;81.90;;;;;;5064912;28;20777;-63
2023/05/28 00:33:09;;;;;;;7.82;3.72;;;20.80;82.00;;;;;;5073883;28;20513;-66
2023/05/28 00:35:35;;;;;;;11.25;3.72;;;;;;;;;;5074673;28;20041;-68
2023/05/28 00:38:01;;;;;;;9.15;3.75;;;;;;;;;;5072880;28;20087;-69
2023/05/28 00:40:27;;;;;;;8.65;3.60;;;20.70;81.80;;;;;;5073289;28;20367;-67
2023/05/28 00:42:53;;;;;;;11.02;4.13;;;20.90;81.90;;;;;;5070923;28;20060;-68
2023/05/28 00:45:19;;;;;;;9.05;3.20;;;;;;;;;;5073668;28;20478;-67
2023/05/28 00:47:45;;;;;;;8.88;3.63;;;20.50;81.70;;;;;;5073215;28;20055;-67
2023/05/28 00:50:12;;;;;;;10.25;3.70;;;20.50;81.80;;;;;;5071991;28;20782;-67
2023/05/28 00:52:38;;;;;;;7.93;3.97;;;20.80;81.80;;;;;;5071328;28;20101;-68
2023/05/28 00:55:09;;;;;;;7.82;3.72;;;20.90;81.90;;;;;;5072901;28;20044;-68
2023/05/28 00:57:36;;;;;;;8.43;3.47;;;20.40;81.50;;;;;;5069298;28;20056;-68
2023/05/28 01:00:05;;;;;;;10.23;3.85;;;20.70;78.60;;;;;;5070928;28;20048;-67
2023/05/28 01:02:31;;;;;;;7.38;3.38;;;20.80;81.90;;;;;;5067357;28;20044;-67
2023/05/28 01:04:57;;;;;;;10.25;3.85;;;20.60;79.10;;;;;;5073855;28;20067;-68
2023/05/28 01:07:22;;;;;;;10.73;4.10;;;20.70;81.80;;;;;;5070061;28;20394;-67
2023/05/28 01:09:48;;;;;;;7.90;3.40;;;20.50;81.60;;;;;;5089209;28;20040;-68
2023/05/28 01:12:14;;;;;;;9.73;3.35;;;20.70;81.80;;;;;;5070944;28;20124;-67
2023/05/28 01:14:40;;;;;;;11.23;3.70;;;20.40;81.60;;;;;;5073493;28;20052;-67
2023/05/28 01:17:06;;;;;;;9.20;3.75;;;20.50;81.50;;;;;;5070329;28;20065;-68
2023/05/28 01:19:31;;;;;;;10.43;3.63;;;20.80;81.80;;;;;;5070408;28;20044;-68
2023/05/28 01:22:03;;;;;;;8.55;3.45;;;20.70;77.00;;;;;;5065801;28;20418;-69
2023/05/28 01:24:30;;;;;;;9.93;3.67;;;20.70;81.70;;;;;;5064315;28;20059;-68
2023/05/28 01:26:58;;;;;;;9.35;3.53;;;20.60;76.90;;;;;;5072154;28;20432;-67
2023/05/28 01:29:24;;;;;;;8.75;3.40;;;20.80;81.80;;;;;;5055486;28;20146;-67
2023/05/28 01:31:50;;;;;;;8.48;3.75;;;20.50;81.60;;;;;;5073128;28;20050;-67
2023/05/28 01:34:16;;;;;;;8.93;4.03;;;20.70;81.70;;;;;;5070571;28;22029;-67
2023/05/28 01:36:48;;;;;;;9.68;3.40;;;20.90;81.80;;;;;;5051472;28;20041;-67
2023/05/28 01:39:15;;;;;;;8.90;3.47;;;20.70;80.20;;;;;;5055163;28;20110;-67
2023/05/28 01:41:41;;;;;;;8.80;3.65;;;20.70;81.80;;;;;;5053177;28;20045;-68
2023/05/28 01:44:07;;;;;;;9.48;3.92;;;20.70;81.40;;;;;;5056860;28;20048;-67
2023/05/28 01:46:33;;;;;;;9.75;3.60;;;20.70;81.70;;;;;;5068918;28;20040;-68
2023/05/28 01:48:59;;;;;;;9.40;3.50;;;20.70;78.40;;;;;;5071507;28;20053;-68
2023/05/28 01:51:25;;;;;;;7.72;3.40;;;20.50;81.70;;;;;;5067676;28;20064;-67
2023/05/28 01:53:51;;;;;;;9.43;3.40;;;20.80;81.80;;;;;;5070944;28;20473;-68
2023/05/28 01:56:16;;;;;;;9.23;3.47;;;20.70;81.90;;;;;;5071256;28;20087;-69
2023/05/28 01:58:42;;;;;;;10.30;3.58;;;20.80;81.90;;;;;;5072878;28;20048;-70
2023/05/28 02:01:36;;;;;;;9.48;3.58;;;20.80;78.40;;;;;;5069748;28;20058;-68
2023/05/28 02:04:02;;;;;;;8.32;3.45;;;;;;;;;;5073023;28;20456;-69
2023/05/28 02:06:30;;;;;;;9.15;3.60;;;20.80;81.80;;;;;;5070127;28;20588;-71
2023/05/28 02:08:56;;;;;;;6.78;3.13;;;20.50;81.70;;;;;;5072870;28;20048;-70
2023/05/28 02:11:22;;;;;;;8.90;3.47;;;20.80;81.80;;;;;;5071852;28;20048;-69
2023/05/28 02:13:48;;;;;;;8.57;3.42;;;20.50;81.70;;;;;;5065908;28;20048;-71
2023/05/28 02:16:17;;;;;;;11.20;3.47;;;20.80;81.80;;;;;;5070790;28;20119;-68
2023/05/28 02:18:44;;;;;;;10.13;3.45;;;21.00;82.00;;;;;;5061904;28;20382;-66
2023/05/28 02:21:11;;;;;;;8.85;3.70;;;20.80;78.50;;;;;;5072485;28;20060;-68
2023/05/28 02:23:45;;;;;;;7.75;3.10;;;20.70;81.80;;;;;;5088285;28;20055;-69
2023/05/28 02:26:11;;;;;;;11.63;3.50;;;20.80;81.80;;;;;;5071579;28;20416;-70
2023/05/28 02:28:37;;;;;;;7.63;3.45;;;;;;;;;;5053048;28;20129;-69
2023/05/28 02:31:03;;;;;;;11.18;3.30;;;;;;;;;;5066984;28;20044;-69
2023/05/28 02:33:29;;;;;;;8.40;3.25;;;;;;;;;;5072132;28;20202;-65
2023/05/28 02:35:55;;;;;;;9.98;4.07;;;;;;;;;;5073218;28;20509;-70
2023/05/28 02:38:21;;;;;;;7.13;3.00;;;20.80;81.90;;;;;;5072517;28;20040;-70
2023/05/28 02:40:47;;;;;;;7.90;3.22;;;20.60;81.80;;;;;;5076686;28;20616;-70
2023/05/28 02:43:13;;;;;;;9.10;3.30;;;20.90;82.00;;;;;;5076633;28;20044;-69
2023/05/28 02:45:39;;;;;;;9.40;3.38;;;20.90;82.00;;;;;;5075764;28;20040;-70
2023/05/28 02:48:05;;;;;;;9.73;3.13;;;20.90;82.00;;;;;;5072509;28;20049;-70
2023/05/28 02:50:31;;;;;;;9.13;3.28;;;;;;;;;;5072122;28;20118;-67
2023/05/28 02:52:56;;;;;;;9.77;3.22;;;20.30;81.70;;;;;;5070356;28;20087;-70
2023/05/28 02:55:22;;;;;;;7.10;3.13;;;20.70;82.00;;;;;;5076180;28;20087;-70
2023/05/28 02:57:48;;;;;;;10.27;3.53;;;20.80;82.00;;;;;;5075637;28;20044;-70
2023/05/28 03:00:14;;;;;;;9.82;3.60;;;20.60;81.90;;;;;;5076415;28;20036;-67
2023/05/28 03:02:40;;;;;;;10.38;3.40;;;20.70;82.00;;;;;;5069358;28;20044;-69
2023/05/28 03:05:05;;;;;;;9.00;3.53;;;20.80;82.00;;;;;;5073218;28;20116;-69
2023/05/28 03:07:31;;;;;;;8.25;3.10;;;20.70;82.10;;;;;;5075106;28;20048;-69
2023/05/28 03:09:58;;;;;;;7.85;3.70;;;;;;;;;;5091264;28;20127;-68
2023/05/28 03:12:23;;;;;;;8.27;3.22;;;20.80;82.10;;;;;;5074787;28;20367;-71
2023/05/28 03:14:50;;;;;;;10.32;3.55;;;20.70;78.70;;;;;;5074885;28;20051;-70
2023/05/28 03:17:15;;;;;;;9.65;3.70;;;20.80;82.10;;;;;;5074040;28;20053;-69
2023/05/28 03:19:41;;;;;;;8.32;2.95;;;20.80;82.10;;;;;;5075828;28;20047;-70
2023/05/28 03:22:07;;;;;;;9.32;3.35;;;;;;;;;;5074139;28;20529;-68
2023/05/28 03:24:34;;;;;;;10.77;3.67;;;20.70;81.50;;;;;;5075152;28;20509;-69
2023/05/28 03:27:00;;;;;;;7.10;3.60;;;20.80;82.20;;;;;;5074657;28;20048;-69
2023/05/28 03:29:26;;;;;;;8.02;3.20;;;20.70;82.10;;;;;;5074081;28;20105;-60
2023/05/28 03:31:52;;;;;;;10.27;3.55;;;;;;;;;;5073154;28;20041;-69
2023/05/28 03:34:18;;;;;;;6.82;3.15;;;20.70;80.70;;;;;;5060805;28;20099;-67
2023/05/28 03:36:44;;;;;;;7.05;3.38;;;20.70;82.10;;;;;;5055586;28;20537;-70
2023/05/28 03:39:10;;;;;;;7.85;3.08;;;20.70;82.10;;;;;;5069437;28;20040;-70
2023/05/28 03:41:36;;;;;;;7.57;3.05;;;20.80;82.10;;;;;;5075383;28;20040;-70
2023/05/28 03:44:02;;;;;;;8.18;3.63;;;20.80;82.20;;;;;;5072919;28;20045;-70
2023/05/28 03:46:28;;;;;;;8.52;3.65;;;;;;;;;;5073431;28;20041;-71
2023/05/28 03:48:53;;;;;;;8.88;3.65;;;20.70;79.60;;;;;;5072309;28;20196;-68
2023/05/28 03:51:19;;;;;;;8.32;3.47;;;20.70;82.10;;;;;;5074023;28;20541;-68
2023/05/28 03:53:45;;;;;;;10.60;3.92;;;20.50;79.40;;;;;;5072462;28;20052;-70
2023/05/28 03:56:11;;;;;;;9.32;3.45;;;20.90;82.20;;;;;;5074564;28;20132;-70
2023/05/28 03:58:36;;;;;;;8.07;2.90;;;20.80;82.20;;;;;;5068162;28;20131;-69
2023/05/28 04:01:02;;;;;;;7.78;3.00;;;20.40;81.90;;;;;;5072193;28;20051;-69
2023/05/28 04:03:28;;;;;;;8.50;2.95;;;20.90;82.10;;;;;;5075077;28;20040;-70
2023/05/28 04:05:54;;;;;;;10.75;4.00;;;;;;;;;;5073588;28;20478;-70
2023/05/28 04:08:20;;;;;;;8.30;3.45;;;20.50;82.00;;;;;;5075164;28;20053;-69
2023/05/28 04:10:46;;;;;;;8.05;3.55;;;20.50;82.00;;;;;;5063506;28;20116;-69
2023/05/28 04:13:12;;;;;;;8.63;3.53;;;;;;;;;;5069924;28;20124;-68
2023/05/28 04:15:38;;;;;;;9.30;3.88;;;20.70;82.10;;;;;;5073290;28;20393;-70
2023/05/28 04:18:03;;;;;;;9.20;3.40;;;20.90;82.20;;;;;;5073874;28;20036;-70
2023/05/28 04:20:29;;;;;;;9.23;3.55;;;20.80;82.20;;;;;;5074054;28;20053;-69
2023/05/28 04:22:55;;;;;;;8.60;3.70;;;20.80;79.50;;;;;;5074259;28;20494;-68
2023/05/28 04:25:21;;;;;;;8.18;3.13;;;20.70;82.10;;;;;;5070395;28;20397;-67
2023/05/28 04:27:47;;;;;;;8.55;3.42;;;20.50;81.90;;;;;;5074708;28;20045;-70
2023/05/28 04:30:12;;;;;;;8.23;3.38;;;20.50;81.80;;;;;;5072823;28;20113;-71
2023/05/28 04:32:39;;;;;;;6.00;3.35;;;20.90;82.10;;;;;;5073092;28;20119;-70
2023/05/28 04:35:08;;;;;;;7.43;3.00;;;20.80;82.00;;;;;;5070656;28;20028;-70
2023/05/28 04:37:36;;;;;;;7.68;2.92;;;20.90;82.10;;;;;;5072567;28;20413;-71
2023/05/28 04:40:04;;;;;;;7.82;3.22;;;20.80;81.00;;;;;;5072687;28;20108;-71
2023/05/28 04:42:29;;;;;;;7.90;3.15;;;20.80;82.00;;;;;;5073406;28;20121;-70
2023/05/28 04:44:58;;;;;;;8.95;3.50;;;20.90;82.10;;;;;;5074119;28;20048;-71
2023/05/28 04:47:24;;;;;;;8.98;3.63;;;20.90;82.00;;;;;;5072648;28;20111;-70
2023/05/28 04:49:50;;;;;;;8.70;3.55;;;21.00;82.00;;;;;;5069918;28;20505;-71
2023/05/28 04:52:16;;;;;;;8.13;3.20;;;21.30;79.40;;;;;;5072494;28;20410;-70
2023/05/28 04:54:44;;;;;;;7.97;2.97;;;21.10;82.10;;;;;;5073795;28;20047;-69
2023/05/28 04:57:10;;;;;;;8.18;3.60;;;21.20;82.10;;;;;;5074164;28;20044;-70
2023/05/28 04:59:37;;;;;;;7.72;3.20;;;;;;;;;;5072355;28;20053;-70
2023/05/28 05:02:03;;;;;;;8.02;2.97;;;21.30;81.90;;;;;;5072734;28;20056;-70
2023/05/28 05:04:29;;;;;;;8.88;3.58;;;21.30;81.70;;;;;;5072805;28;20059;-71
2023/05/28 05:06:55;;;;;;;7.07;3.15;;;21.30;81.60;;;;;;5073700;28;20397;-70
2023/05/28 05:09:22;;;;;;;10.15;3.13;;;21.30;81.50;;;;;;5061295;28;20041;-70
2023/05/28 05:11:48;;;;;;;6.85;2.78;;;21.40;81.40;;;;;;5054507;28;20066;-60
2023/05/28 05:14:14;;;;;;;10.27;3.35;;;21.40;81.40;;;;;;5072121;28;20405;-70
2023/05/28 05:16:40;;;;;;;7.85;3.50;;;21.40;81.40;;;;;;5073184;28;20075;-69
2023/05/28 05:19:06;;;;;;;7.47;3.00;;;21.50;81.40;;;;;;5071772;28;20048;-71
2023/05/28 05:21:32;;;;;;;6.63;2.63;;;;;;;;;;5072547;28;20429;-70
2023/05/28 05:23:58;;;;;;;7.85;3.03;;;21.60;81.30;;;;;;5068951;28;20520;-68
2023/05/28 05:26:25;;;;;;;6.78;3.08;;;;;;;;;;5071773;28;20048;-67
2023/05/28 05:28:51;;;;;;;5.32;2.55;;;21.60;81.30;;;;;;5072897;28;20193;-70
2023/05/28 05:31:16;;;;;;;8.80;3.33;;;21.50;81.30;;;;;;5072317;28;20192;-70
2023/05/28 05:33:42;;;;;;;6.55;3.10;;;21.50;81.30;;;;;;5073213;28;20048;-70
2023/05/28 05:36:09;;;;;;;7.88;3.25;;;21.60;79.80;;;;;;5072076;28;20055;-69
2023/05/28 05:38:35;;;;;;;7.53;3.03;;;21.70;79.50;;;;;;5065973;28;20033;-69
2023/05/28 05:41:01;;;;;;;7.15;3.38;;;;;;;;;;5052746;28;20175;-70
2023/05/28 05:43:27;;;;;;;7.85;3.00;;;22.20;81.20;;;;;;5067616;28;20595;-70
2023/05/28 05:45:53;;;;;;;8.73;3.55;;;22.20;80.80;;;;;;5073153;28;20410;-68
2023/05/28 05:48:19;;;;;;;8.75;2.80;;;22.30;80.60;;;;;;5073129;28;20045;-69
2023/05/28 05:50:49;;;;;;;5.05;2.75;;;22.40;80.30;;;;;;5071354;28;20043;-65
2023/05/28 05:53:15;;;;;;;7.50;3.05;;;22.60;80.10;;;;;;5069906;28;20453;-65
2023/05/28 05:55:41;;;;;;;7.82;2.95;;;22.60;79.90;;;;;;5053100;28;20049;-64
2023/05/28 05:58:06;;;;;;;7.22;2.90;;;22.50;79.60;;;;;;5052810;28;20486;-63
2023/05/28 06:00:33;;;;;;;8.98;3.17;;;23.10;79.70;;;;;;5051417;28;20045;-62
2023/05/28 06:02:58;;;;;;;7.10;2.90;;;22.90;79.20;;;;;;5067036;28;20079;-60
2023/05/28 06:05:25;;;;;;;8.65;3.42;;;23.00;79.10;;;;;;5072646;28;20070;-61
2023/05/28 06:07:50;;;;;;;7.72;3.10;;;23.20;79.10;;;;;;5072770;28;20119;-60
2023/05/28 06:10:17;;;;;;;5.35;2.92;;;;;;;;;;5072277;28;20051;-61
2023/05/28 06:12:43;;;;;;;7.50;2.70;;;23.40;78.70;;;;;;5066007;28;20401;-60
2023/05/28 06:15:09;;;;;;;7.05;2.45;;;23.40;77.00;;;;;;5067277;28;20128;-67
2023/05/28 06:17:35;;;;;;;6.85;3.25;;;;;;;;;;5069516;28;20410;-62
2023/05/28 06:20:01;;;;;;;6.20;2.80;;;23.60;78.30;;;;;;5070203;28;20044;-62
2023/05/28 06:22:26;;;;;;;7.05;2.72;;;23.70;78.20;;;;;;5072186;28;20056;-61
2023/05/28 06:24:54;;;;;;;7.18;3.00;;;23.50;78.00;;;;;;5070909;28;20044;-64
2023/05/28 06:27:20;;;;;;;6.95;3.00;;;23.60;77.90;;;;;;5064286;28;20763;-66
2023/05/28 06:29:46;;;;;;;7.75;3.42;;;23.90;78.00;;;;;;5070390;28;20081;-61
2023/05/28 06:32:13;;;;;;;5.55;2.92;;;23.60;74.90;;;;;;5054570;28;20116;-63
2023/05/28 06:34:39;;;;;;;6.88;2.95;;;24.00;77.80;;;;;;5052252;28;20128;-61
2023/05/28 06:37:05;;;;;;;6.70;2.80;;;23.90;77.50;;;;;;5051105;28;20041;-64
2023/05/28 06:39:31;;;;;;;7.68;3.30;;;;;;;;;;5054383;28;20056;-60
2023/05/28 06:41:57;;;;;;;8.32;3.17;;;24.20;77.50;;;;;;5069868;28;20056;-67
2023/05/28 06:44:24;;;;;;;8.65;3.00;;;24.00;77.30;;;;;;5070110;28;20037;-67
2023/05/28 06:46:52;;;;;;;7.88;3.30;;;24.10;77.30;;;;;;5072616;28;20411;-66
2023/05/28 06:49:18;;;;;;;7.00;3.30;;;24.20;77.20;;;;;;5071635;28;20480;-63
2023/05/28 06:51:44;;;;;;;6.30;2.97;;;24.40;77.10;;;;;;5071133;28;20179;-60
2023/05/28 06:54:10;;;;;;;7.25;2.88;;;24.40;77.10;;;;;;5069442;28;20071;-62
2023/05/28 06:56:36;;;;;;;7.05;3.17;;;24.40;77.00;;;;;;5072259;28;20049;-60
2023/05/28 06:59:01;;;;;;;7.03;2.92;;;24.40;76.80;;;;;;5072076;28;20048;-64
2023/05/28 07:01:27;;;;;;;7.40;3.30;;;24.30;76.60;;;;;;5071544;28;20037;-68
2023/05/28 07:03:53;;;;;;;5.82;3.20;;;24.50;73.90;;;;;;5069619;28;20044;-66
2023/05/28 07:06:19;;;;;;;5.65;3.17;;;24.40;73.70;;;;;;5070087;28;20482;-69
2023/05/28 07:08:45;;;;;;;5.60;2.67;;;24.90;73.80;;;;;;5072228;28;20044;-66
2023/05/28 07:11:12;;;;;;;7.20;2.90;;;24.60;73.70;;;;;;5072031;28;20045;-67
2023/05/28 07:13:38;;;;;;;7.50;3.20;;;24.60;73.70;;;;;;5069735;28;20056;-67
2023/05/28 07:16:04;;;;;;;4.47;2.47;;;24.80;76.40;;;;;;5071961;28;20051;-67
2023/05/28 07:18:30;;;;;;;7.93;3.28;;;24.70;76.30;;;;;;5062419;28;20498;-71
2023/05/28 07:20:56;;;;;;;12.82;3.67;;;24.80;76.50;;;;;;5070661;28;20045;-73
2023/05/28 07:23:22;;;;;;;10.27;3.60;;;24.50;76.70;;;;;;5073025;28;20060;-67
2023/05/28 07:25:47;;;;;;;10.35;3.10;;;24.80;73.50;;;;;;5075498;28;20076;-75
2023/05/28 07:28:13;;;;;;;10.75;3.47;;;24.80;73.50;;;;;;5072290;28;20090;-72
2023/05/28 07:30:41;;;;;;;9.05;3.33;;;24.40;73.20;;;;;;5073979;28;20082;-70
2023/05/28 07:33:06;;;;;;;9.60;3.40;;;24.60;76.10;;;;;;5073666;28;20133;-64
2023/05/28 07:35:32;;;;;;;11.60;3.40;;;24.60;76.80;;;;;;5073724;28;20041;-69
2023/05/28 07:37:58;;;;;;;8.27;3.45;;;24.70;73.60;;;;;;5075640;28;20091;-71
2023/05/28 07:40:24;;;;;;;7.25;3.80;;;24.70;75.70;;;;;;5060011;28;20052;-70
2023/05/28 07:42:50;;;;;;;7.70;3.80;;;24.80;75.80;;;;;;5074212;28;20044;-69
2023/05/28 07:45:16;;;;;;;8.93;3.78;;;24.60;75.50;;;;;;5075182;28;20044;-69
2023/05/28 07:47:41;;;;;;;9.85;3.50;;;24.40;76.10;;;;;;5074778;28;20044;-71
2023/05/28 07:50:09;;;;;;;12.57;4.10;;;24.70;72.80;;;;;;5073109;28;20041;-75
2023/05/28 07:52:34;;;;;;;10.00;3.90;;;24.80;75.20;;;;;;5073078;28;20486;-73
2023/05/28 07:55:01;;;;;;;7.25;3.10;;;25.10;72.60;;;;;;5075366;28;20047;-75
2023/05/28 07:57:27;;;;;;;8.05;3.92;;;24.90;72.80;;;;;;5075021;28;20052;-74
2023/05/28 07:59:53;;;;;;;10.77;3.72;;;24.90;75.30;;;;;;5072952;28;20098;-76
2023/05/28 08:02:18;;;;;;;8.88;3.70;;;24.80;72.50;;;;;;5063249;28;20114;-77
2023/05/28 08:04:44;;;;;;;8.80;3.70;;;24.90;75.40;;;;;;5071282;28;20127;-78
2023/05/28 08:07:12;;;;;;;9.65;4.13;;;24.90;74.50;;;;;;5074020;28;20119;-79
2023/05/28 08:09:38;;;;;;;10.80;3.58;;;25.10;75.20;;;;;;5072760;28;20118;-78
2023/05/28 08:12:04;;;;;;;7.68;3.80;;;24.80;72.30;;;;;;5073641;28;20040;-77
2023/05/28 08:14:30;;;;;;;8.32;4.03;;;24.80;72.30;;;;;;5069200;28;20044;-78
2023/05/28 08:16:55;;;;;;;9.15;4.18;;;25.10;72.10;;;;;;5074764;28;20044;-80
2023/05/28 08:19:21;;;;;;;7.13;3.35;;;25.20;71.80;;;;;;5073775;28;20044;-74
2023/05/28 08:21:47;;;;;;;7.97;3.60;;;25.30;74.50;;;;;;5073180;28;20636;-64
2023/05/28 08:24:13;;;;;;;8.77;4.00;;;25.10;74.20;;;;;;5073490;28;20048;-61
2023/05/28 08:26:38;;;;;;;8.02;3.97;;;25.10;71.60;;;;;;5071619;28;20502;-71
2023/05/28 08:29:04;;;;;;;7.72;3.92;;;24.80;71.20;;;;;;5074673;28;20470;-76
2023/05/28 08:31:31;;;;;;;7.93;3.83;;;25.20;73.60;;;;;;5074409;28;20198;-73
2023/05/28 08:33:57;;;;;;;7.63;3.75;;;25.30;71.30;;;;;;5072605;28;20410;-62
2023/05/28 08:36:23;;;;;;;7.35;3.95;;;25.30;70.70;;;;;;5059597;28;20036;-60
2023/05/28 08:38:49;;;;;;;7.15;3.75;;;25.20;70.50;;;;;;5073412;28;20616;-61
2023/05/28 08:41:15;;;;;;;7.80;3.83;;;25.10;72.70;;;;;;5073962;28;20115;-60
2023/05/28 08:43:41;;;;;;;8.05;3.80;;;25.20;72.80;;;;;;5068151;28;20182;-62
2023/05/28 08:46:07;;;;;;;8.70;4.20;;;25.00;70.00;;;;;;5062548;28;20131;-61
2023/05/28 08:48:34;;;;;;;8.13;4.07;;;25.30;69.90;;;;;;5056135;28;20045;-61
2023/05/28 08:51:00;;;;;;;9.25;4.00;;;25.30;70.20;;;;;;5054076;28;20052;-61
2023/05/28 08:53:29;;;;;;;8.70;3.95;;;25.40;69.90;;;;;;5054254;28;20041;-61
2023/05/28 08:55:55;;;;;;;9.93;4.22;;;25.10;72.30;;;;;;5069951;28;20064;-60
2023/05/28 08:58:21;;;;;;;7.25;3.63;;;25.30;72.70;;;;;;5061761;28;20106;-60
2023/05/28 09:00:47;;;;;;;7.38;4.18;;;25.20;72.40;;;;;;5064545;28;20487;-61
2023/05/28 09:03:13;;;;;;;9.23;4.65;;;25.40;69.80;;;;;;5071092;28;20091;-61
2023/05/28 09:05:39;;;;;;;7.22;4.03;;;25.00;69.30;;;;;;5056183;28;20072;-61
2023/05/28 09:08:10;;;;;;;8.27;4.10;;;24.80;71.90;;;;;;5069230;28;20486;-62
2023/05/28 09:10:39;;;;;;;7.93;4.00;;;25.20;71.90;;;;;;5059045;28;20040;-63
2023/05/28 09:13:05;;;;;;;7.47;4.07;;;25.10;72.00;;;;;;5070774;28;20460;-68
2023/05/28 09:15:31;;;;;;;8.25;4.18;;;25.30;69.40;;;;;;5073316;28;20070;-69
2023/05/28 09:18:00;;;;;;;9.77;4.53;;;25.10;69.30;;;;;;5070796;28;20532;-62
2023/05/28 09:20:26;;;;;;;7.82;4.03;;;25.20;69.30;;;;;;5073761;28;20102;-61
2023/05/28 09:23:02;;;;;;;8.20;4.45;;;25.30;69.10;;;;;;5072500;28;20064;-64
2023/05/28 09:25:28;;;;;;;7.53;4.20;;;25.40;68.10;;;;;;5072851;28;20053;-62
2023/05/28 09:27:55;;;;;;;8.38;4.10;;;24.80;71.90;;;;;;5069906;28;20037;-64
2023/05/28 09:30:22;;;;;;;10.18;4.63;;;25.10;69.40;;;;;;5072446;28;20052;-60
2023/05/28 09:32:56;;;;;;;11.18;4.70;;;25.10;69.20;;;;;;5073369;28;20169;-61
2023/05/28 09:35:26;;;;;;;10.20;4.65;;;25.10;72.40;;;;;;5069505;28;20083;-64
2023/05/28 09:38:02;;;;;;;9.05;5.00;;;25.10;72.10;;;;;;5065736;28;20037;-68
2023/05/28 09:40:28;;;;;;;9.15;5.15;;;25.10;69.70;;;;;;5053424;28;20045;-61
2023/05/28 09:42:54;;;;;;;9.65;4.65;;;25.00;72.30;;;;;;5053184;28;20548;-61
2023/05/28 09:45:26;;;;;;;9.98;4.88;;;25.10;69.30;;;;;;5051774;28;20045;-69
2023/05/28 09:47:52;;;;;;;12.07;5.82;;;25.00;69.50;;;;;;5071083;28;20044;-61
2023/05/28 09:50:18;;;;;;;13.45;4.90;;;25.20;72.30;;;;;;5071921;28;20379;-67
2023/05/28 09:52:45;;;;;;;8.57;4.75;;;24.90;69.40;;;;;;5069161;28;20513;-64
2023/05/28 09:55:15;;;;;;;14.68;5.90;;;25.40;69.70;;;;;;5068841;28;20041;-65
2023/05/28 09:57:54;;;;;;;11.55;5.50;;;25.10;69.90;;;;;;5061388;28;20555;-68
2023/05/28 10:00:26;;;;;;;9.82;5.43;;;24.90;72.70;;;;;;5059631;28;20090;-63
2023/05/28 10:03:23;;;;;;;11.60;5.45;;;24.80;72.90;;;;;;5075816;28;20048;-61
2023/05/28 10:05:51;;;;;;;14.13;5.78;;;24.90;68.80;;;;;;5072905;28;20052;-61
2023/05/28 10:08:17;;;;;;;14.77;5.80;;;25.10;70.00;;;;;;5071542;28;20047;-65
2023/05/28 10:10:43;;;;;;;12.48;6.20;;;24.80;69.50;;;;;;5072052;28;20040;-65
2023/05/28 10:13:09;;;;;;;10.23;5.25;;;24.90;70.00;;;;;;5069802;28;20049;-76
2023/05/28 10:15:36;;;;;;;10.07;5.65;;;24.40;69.40;;;;;;5071440;28;20040;-68
2023/05/28 10:18:03;;;;;;;9.98;5.50;;;25.10;69.60;;;;;;5056206;28;20429;-69
2023/05/28 10:20:29;;;;;;;10.23;5.50;;;25.10;73.40;;;;;;5067611;28;20052;-67
2023/05/28 10:22:55;;;;;;;8.75;5.22;;;24.90;70.10;;;;;;5053799;28;20092;-68
2023/05/28 10:25:21;;;;;;;12.25;5.93;;;25.20;69.40;;;;;;5052372;28;20479;-69
2023/05/28 10:27:50;;;;;;;12.43;6.30;;;25.10;69.60;;;;;;5070183;28;20045;-62
2023/05/28 10:30:35;;;;;;;12.13;6.03;;;25.10;68.80;;;;;;5052204;28;20702;-62
2023/05/28 10:33:05;;;;;;;12.63;5.68;;;25.00;68.50;;;;;;5071474;28;20127;-61
2023/05/28 10:35:33;;;;;;;11.45;6.25;;;24.90;72.40;;;;;;5069957;28;20052;-65
2023/05/28 10:38:06;;;;;;;11.77;6.13;;;25.30;72.40;;;;;;5070373;28;20048;-62
2023/05/28 10:40:33;;;;;;;11.57;5.68;;;25.00;68.10;;;;;;5070512;28;20060;-68
2023/05/28 10:42:59;;;;;;;11.80;6.55;;;24.90;69.60;;;;;;5066229;28;20048;-67
2023/05/28 10:45:38;;;;;;;9.93;5.43;;;25.00;69.40;;;;;;5052616;28;20399;-67
2023/05/28 10:48:04;;;;;;;10.95;6.53;;;25.20;69.60;;;;;;5062716;28;20049;-68
2023/05/28 10:50:30;;;;;;;11.40;5.68;;;25.10;73.10;;;;;;5067180;28;20049;-69
2023/05/28 10:53:06;;;;;;;9.15;5.47;;;25.00;69.50;;;;;;5052125;28;20387;-68
2023/05/28 10:55:52;;;;;;;10.15;5.55;;;24.90;69.70;;;;;;5052141;28;20055;-67
2023/05/28 10:58:33;;;;;;;10.55;5.32;;;25.10;72.60;;;;;;5069826;28;20490;-70
2023/05/28 11:01:21;;;;;;;9.40;4.90;;;24.90;72.40;;;;;;5072790;28;20052;-68
2023/05/28 11:03:53;;;;;;;8.80;5.28;;;24.80;69.90;;;;;;5075511;28;20436;-67
2023/05/28 11:06:19;;;;;;;9.77;5.07;;;24.90;72.50;;;;;;5074172;28;20048;-69
2023/05/28 11:08:45;;;;;;;9.68;5.05;;;25.00;72.70;;;;;;5063227;28;20041;-68
2023/05/28 11:11:15;;;;;;;9.55;4.93;;;25.10;70.00;;;;;;5057965;28;20542;-69
2023/05/28 11:13:45;;;;;;;10.65;4.93;;;25.00;73.40;;;;;;5074615;28;20040;-68
2023/05/28 11:16:12;;;;;;;10.57;4.65;;;25.00;70.10;;;;;;5075266;28;20068;-68
2023/05/28 11:18:38;;;;;;;8.35;4.43;;;25.00;73.00;;;;;;5074793;28;20052;-68
2023/05/28 11:21:08;;;;;;;10.55;4.95;;;24.80;69.60;;;;;;5074906;28;20037;-68
2023/05/28 11:23:37;;;;;;;9.98;4.90;;;24.90;69.90;;;;;;5075633;28;20059;-69
2023/05/28 11:26:04;;;;;;;8.45;4.82;;;25.00;70.10;;;;;;5090515;28;20048;-67
2023/05/28 11:28:30;;;;;;;8.50;4.18;;;25.20;70.30;;;;;;5074053;28;20079;-69
2023/05/28 11:30:57;;;;;;;8.27;4.07;;;24.80;73.60;;;;;;5075907;28;20439;-68
2023/05/28 11:33:26;;;;;;;7.85;4.30;;;25.20;70.60;;;;;;5069727;28;20142;-69
2023/05/28 11:36:00;;;;;;;9.18;4.50;;;25.10;70.60;;;;;;5056888;28;20455;-68
2023/05/28 11:38:25;;;;;;;8.63;4.35;;;25.00;70.70;;;;;;5074831;28;20049;-68
2023/05/28 11:40:58;;;;;;;11.40;4.18;;;24.70;70.40;;;;;;5074483;28;20098;-70
2023/05/28 11:43:27;;;;;;;10.13;4.85;;;25.10;71.20;;;;;;5068416;28;20115;-67
2023/05/28 11:45:59;;;;;;;21.75;4.93;;;24.90;73.50;;;;;;5071500;28;20039;-67
2023/05/28 11:48:28;;;;;;;;;;;24.90;71.10;;;;;;5071127;28;20045;-68
2023/05/28 11:51:00;;;;;;;13.68;4.45;;;24.80;70.00;;;;;;5072565;28;20297;-62
2023/05/28 11:53:42;;;;;;;12.05;4.20;;;25.10;73.90;;;;;;5074173;28;21896;-60
2023/05/28 11:56:11;;;;;;;22.55;4.47;;;25.00;74.50;;;;;;5055040;28;20051;-67
2023/05/28 11:58:40;;;;;;;11.02;3.50;;;25.20;71.10;;;;;;5074751;28;20512;-65
2023/05/28 12:01:06;;;;;;;11.30;4.50;;;24.90;70.70;;;;;;5073497;28;20052;-67
2023/05/28 12:03:32;;;;;;;11.00;4.00;;;24.80;70.80;;;;;;5075168;28;20040;-66
2023/05/28 12:05:58;;;;;;;12.90;5.05;;;24.90;70.70;;;;;;5058322;28;20047;-67
2023/05/28 12:08:23;;;;;;;9.05;4.03;;;24.90;75.10;;;;;;5070905;28;20049;-71
2023/05/28 12:10:49;;;;;;;7.82;4.05;;;25.00;71.30;;;;;;5061926;28;20067;-70
2023/05/28 12:13:15;;;;;;;8.82;4.32;;;25.00;71.80;;;;;;5071533;28;20390;-68
2023/05/28 12:15:41;;;;;;;9.27;3.95;;;24.80;71.20;;;;;;5072738;28;20040;-68
2023/05/28 12:18:07;;;;;;;9.07;3.75;;;25.10;71.40;;;;;;5073406;28;20049;-68
2023/05/28 12:20:36;;;;;;;9.13;3.63;;;25.10;71.40;;;;;;5073781;28;20074;-69
2023/05/28 12:23:09;;;;;;;6.45;3.20;;;25.00;71.60;;;;;;5074363;28;20494;-68
2023/05/28 12:25:55;;;;;;;7.15;3.38;;;25.10;70.30;;;;;;5072798;28;20055;-71
2023/05/28 12:28:22;;;;;;;8.13;3.67;;;24.70;71.40;;;;;;5074096;28;20058;-69
2023/05/28 12:30:50;;;;;;;7.70;3.65;;;25.00;74.30;;;;;;5070050;28;20133;-78
2023/05/28 12:33:16;;;;;;;9.35;4.07;;;25.10;71.70;;;;;;5074330;28;20193;-69
2023/05/28 12:35:42;;;;;;;7.30;3.33;;;24.90;71.70;;;;;;5070869;28;20057;-73
2023/05/28 12:38:08;;;;;;;10.38;3.90;;;25.10;71.70;;;;;;5055530;28;20041;-73
2023/05/28 12:40:34;;;;;;;8.85;3.47;;;24.90;71.80;;;;;;5056115;28;20102;-68
2023/05/28 12:43:00;;;;;;;8.85;3.40;;;24.90;71.60;;;;;;5054566;28;20060;-74
2023/05/28 12:45:27;;;;;;;5.97;3.45;;;25.00;71.70;;;;;;5055923;28;20120;-74
2023/05/28 12:47:52;;;;;;;8.07;3.20;;;24.70;72.00;;;;;;5057983;28;20041;-72
2023/05/28 12:50:23;;;;;;;8.13;3.85;;;24.80;75.00;;;;;;5056230;28;20785;-76
2023/05/28 12:52:50;;;;;;;8.00;3.55;;;24.80;75.10;;;;;;5069579;28;20044;-63